Terminal Aerodrome Forecast
Issued by NWS Wichita, KS

Home | Current Version | Previous Version | Text Only | Print | Product List | Glossary On
Versions: 1 2 3 4 5 6 7 8 9 10 11 12 13 14 15 16 17 18 19 20 21 22 23 24 25 26 27 28
435
FTUS43 KICT 241612 AAB
TAFICT
TAF AMD
KICT 241612Z 2416/2512 08013G21KT P6SM SCT035 SCT090
     FM241900 14013G21KT P6SM SCT035
     FM250200 16015G23KT P6SM VCTS SCT035 BKN070CB
     FM250400 17014KT P6SM VCTS BKN015 OVC040CB
     FM250600 17013KT P6SM VCSH BKN015=

USA.gov is the U.S. government's official web portal to all federal, state and local government web resources and services.